createdAt,value
2019-05-23T00:01:21.748Z,5.33
2019-05-23T00:03:52.091Z,5.20
2019-05-23T00:06:32.050Z,5.20
2019-05-23T00:09:02.498Z,5.60
2019-05-23T00:11:40.322Z,5.90
2019-05-23T00:14:19.894Z,5.73
2019-05-23T00:16:48.917Z,6.07
2019-05-23T00:19:18.451Z,6.57
2019-05-23T00:21:49.060Z,6.73
2019-05-23T00:24:19.948Z,6.67
2019-05-23T00:26:48.907Z,6.87
2019-05-23T00:29:17.587Z,6.90
2019-05-23T00:31:48.053Z,7.07
2019-05-23T00:34:18.683Z,6.63
2019-05-23T00:36:49.634Z,6.67
2019-05-23T00:39:19.047Z,6.83
2019-05-23T00:41:49.003Z,6.40
2019-05-23T00:44:18.531Z,6.77
2019-05-23T00:46:47.447Z,6.37
2019-05-23T00:49:16.401Z,6.13
2019-05-23T00:51:46.495Z,6.07
2019-05-23T00:54:16.047Z,6.03
2019-05-23T00:56:45.579Z,5.57
2019-05-23T00:59:26.769Z,6.40
2019-05-23T01:01:46.568Z,6.20
2019-05-23T01:04:16.710Z,5.90
2019-05-23T01:06:45.415Z,6.67
2019-05-23T01:09:16.198Z,6.27
2019-05-23T01:11:45.346Z,6.57
2019-05-23T01:14:15.116Z,6.80
2019-05-23T01:16:44.883Z,6.30
2019-05-23T01:19:15.334Z,6.10
2019-05-23T01:22:00.743Z,6.00
2019-05-23T01:24:32.160Z,5.90
2019-05-23T01:27:02.034Z,6.67
2019-05-23T01:29:37.787Z,6.00
2019-05-23T01:32:04.658Z,6.73
2019-05-23T01:34:34.227Z,6.80
2019-05-23T01:37:04.106Z,6.77
2019-05-23T01:39:33.560Z,6.90
2019-05-23T01:42:02.714Z,7.40
2019-05-23T01:44:33.054Z,7.17
2019-05-23T01:47:01.748Z,7.30
2019-05-23T01:49:31.201Z,6.67
2019-05-23T01:52:00.260Z,6.50
2019-05-23T01:54:29.591Z,7.07
2019-05-23T01:56:58.954Z,6.93
2019-05-23T01:59:28.025Z,6.60
2019-05-23T02:01:56.647Z,7.07
2019-05-23T02:04:25.514Z,6.97
2019-05-23T02:06:55.419Z,6.83
2019-05-23T02:09:24.173Z,7.70
2019-05-23T02:11:53.250Z,7.33
2019-05-23T02:14:23.377Z,7.17
2019-05-23T02:16:52.711Z,7.30
2019-05-23T02:19:21.397Z,6.80
2019-05-23T02:21:50.931Z,7.07
2019-05-23T02:24:21.082Z,6.67
2019-05-23T02:26:50.139Z,7.00
2019-05-23T02:29:20.431Z,7.07
2019-05-23T02:31:49.484Z,6.97
2019-05-23T02:34:19.546Z,7.10
2019-05-23T02:36:49.535Z,6.90
2019-05-23T02:39:36.502Z,7.00
2019-05-23T02:42:12.866Z,7.00
2019-05-23T02:44:41.560Z,7.00
2019-05-23T02:47:16.865Z,7.47
2019-05-23T02:49:47.823Z,7.83
2019-05-23T02:52:29.988Z,7.73
2019-05-23T02:54:59.007Z,7.33
2019-05-23T02:57:29.866Z,7.37
2019-05-23T03:00:21.436Z,7.50
2019-05-23T03:02:55.399Z,6.97
2019-05-23T03:05:25.983Z,7.37
2019-05-23T03:07:56.643Z,7.00
2019-05-23T03:10:28.072Z,7.10
2019-05-23T03:12:58.556Z,7.37
2019-05-23T03:15:28.237Z,8.00
2019-05-23T03:18:00.641Z,6.83
2019-05-23T03:20:30.056Z,7.67
2019-05-23T03:23:01.682Z,8.03
2019-05-23T03:25:36.810Z,7.23
2019-05-23T03:28:08.163Z,7.70
2019-05-23T03:30:38.795Z,7.90
2019-05-23T03:33:10.349Z,7.00
2019-05-23T03:35:40.972Z,7.37
2019-05-23T03:38:11.030Z,7.77
2019-05-23T03:40:40.279Z,7.60
2019-05-23T03:43:10.122Z,8.03
2019-05-23T03:45:45.032Z,7.27
2019-05-23T03:48:14.182Z,7.07
2019-05-23T03:50:44.393Z,7.23
2019-05-23T03:53:13.818Z,7.60
2019-05-23T03:55:42.656Z,7.47
2019-05-23T03:58:12.837Z,7.43
2019-05-23T04:00:43.573Z,7.77
2019-05-23T04:03:12.729Z,8.87
2019-05-23T04:05:41.421Z,8.73
2019-05-23T04:08:11.108Z,8.73
2019-05-23T04:10:40.377Z,8.03
2019-05-23T04:13:09.529Z,8.50
2019-05-23T04:15:38.252Z,8.00
2019-05-23T04:18:06.961Z,8.47
2019-05-23T04:20:35.785Z,8.37
2019-05-23T04:23:05.880Z,8.37
2019-05-23T04:25:35.331Z,9.10
2019-05-23T04:28:04.426Z,9.20
2019-05-23T04:30:34.312Z,8.87
2019-05-23T04:33:03.573Z,8.10
2019-05-23T04:35:32.249Z,8.93
2019-05-23T04:38:01.338Z,8.53
2019-05-23T04:40:30.524Z,8.33
2019-05-23T04:42:59.229Z,7.73
2019-05-23T04:45:28.923Z,8.20
2019-05-23T04:47:57.612Z,8.57
2019-05-23T04:50:27.663Z,10.37
2019-05-23T04:52:57.160Z,8.17
2019-05-23T04:55:27.223Z,10.77
2019-05-23T04:57:56.522Z,10.37
2019-05-23T05:00:25.814Z,12.77
2019-05-23T05:02:55.276Z,11.77
2019-05-23T05:05:24.746Z,11.67
2019-05-23T05:07:53.933Z,10.97
2019-05-23T05:10:23.686Z,10.07
2019-05-23T05:12:52.307Z,9.93
2019-05-23T05:15:21.581Z,10.37
2019-05-23T05:17:50.271Z,10.07
2019-05-23T05:20:19.247Z,11.27
2019-05-23T05:22:48.162Z,11.60
2019-05-23T05:25:17.377Z,10.53
2019-05-23T05:27:47.295Z,10.77
2019-05-23T05:30:17.933Z,11.20
2019-05-23T05:32:47.896Z,11.83
2019-05-23T05:35:17.000Z,10.87
2019-05-23T05:37:46.198Z,10.87
2019-05-23T05:40:16.074Z,11.60
2019-05-23T05:42:46.163Z,12.10
2019-05-23T05:45:16.365Z,13.33
2019-05-23T05:47:45.050Z,11.80
2019-05-23T05:50:14.609Z,11.13
2019-05-23T05:52:43.746Z,12.37
2019-05-23T05:55:12.931Z,12.13
2019-05-23T05:57:41.832Z,12.57
2019-05-23T06:00:30.392Z,12.33
2019-05-23T06:03:04.953Z,12.97
2019-05-23T06:05:33.006Z,12.50
2019-05-23T06:08:02.211Z,12.60
2019-05-23T06:10:30.903Z,12.20
2019-05-23T06:12:59.751Z,13.33
2019-05-23T06:15:29.445Z,13.13
2019-05-23T06:17:58.330Z,13.07
2019-05-23T06:20:27.030Z,13.13
2019-05-23T06:22:56.415Z,13.53
2019-05-23T06:25:25.352Z,14.20
2019-05-23T06:27:54.441Z,14.37
2019-05-23T06:30:24.784Z,14.13
2019-05-23T06:32:54.140Z,15.30
2019-05-23T06:35:22.862Z,13.50
2019-05-23T06:37:51.797Z,13.37
2019-05-23T06:40:20.644Z,13.60
2019-05-23T06:42:50.869Z,13.10
2019-05-23T06:45:20.951Z,13.57
2019-05-23T06:47:49.796Z,13.20
2019-05-23T06:50:20.063Z,14.03
2019-05-23T06:52:48.808Z,14.67
2019-05-23T06:55:17.487Z,14.43
2019-05-23T06:57:46.244Z,14.47
2019-05-23T07:00:17.303Z,14.60
2019-05-23T07:02:47.755Z,13.97
2019-05-23T07:05:18.654Z,15.47
2019-05-23T07:07:47.610Z,15.73
2019-05-23T07:10:16.670Z,15.93
2019-05-23T07:12:45.561Z,15.90
2019-05-23T07:15:14.631Z,15.20
2019-05-23T07:17:43.746Z,15.50
2019-05-23T07:20:12.803Z,15.03
2019-05-23T07:22:41.536Z,14.93
2019-05-23T07:25:10.215Z,14.57
2019-05-23T07:27:38.932Z,14.30
2019-05-23T07:30:16.379Z,13.67
2019-05-23T07:32:45.193Z,12.93
2019-05-23T07:35:14.447Z,12.80
2019-05-23T07:37:43.169Z,13.53
2019-05-23T07:40:12.467Z,12.87
2019-05-23T07:42:42.692Z,13.17
2019-05-23T07:45:13.940Z,12.40
2019-05-23T07:47:42.907Z,13.53
2019-05-23T07:50:11.989Z,13.50
2019-05-23T07:52:40.834Z,13.43
2019-05-23T07:55:23.647Z,12.47
2019-05-23T07:57:52.737Z,12.33
2019-05-23T08:00:32.008Z,11.90
2019-05-23T08:03:05.373Z,13.40
2019-05-23T08:05:34.419Z,12.03
2019-05-23T08:08:04.132Z,11.73
2019-05-23T08:10:34.516Z,11.43
2019-05-23T08:13:03.501Z,11.60
2019-05-23T08:15:32.569Z,11.23
2019-05-23T08:18:02.228Z,11.20
2019-05-23T08:20:31.091Z,11.50
2019-05-23T08:22:59.978Z,11.57
2019-05-23T08:25:28.715Z,12.40
2019-05-23T08:27:57.412Z,11.50
2019-05-23T08:30:26.199Z,11.43
2019-05-23T08:32:55.513Z,10.27
2019-05-23T08:35:24.575Z,12.40
2019-05-23T08:37:55.211Z,11.60
2019-05-23T08:40:25.421Z,10.87
2019-05-23T08:42:54.585Z,11.00
2019-05-23T08:45:23.325Z,10.83
2019-05-23T08:47:53.046Z,10.60
2019-05-23T08:50:22.212Z,10.60
2019-05-23T08:52:50.900Z,10.73
2019-05-23T08:55:26.190Z,9.60
2019-05-23T08:57:55.352Z,8.77
2019-05-23T09:00:29.855Z,8.90
2019-05-23T09:03:00.110Z,6.47
2019-05-23T09:05:30.835Z,6.97
2019-05-23T09:07:59.995Z,7.17
2019-05-23T09:10:29.796Z,7.27
2019-05-23T09:12:59.646Z,6.43
2019-05-23T09:15:28.665Z,6.83
2019-05-23T09:17:58.283Z,6.57
2019-05-23T09:20:26.995Z,6.07
2019-05-23T09:22:56.039Z,5.87
2019-05-23T09:25:24.742Z,7.43
2019-05-23T09:27:54.394Z,8.50
2019-05-23T09:30:26.127Z,7.30
2019-05-23T09:32:55.126Z,6.67
2019-05-23T09:35:24.179Z,6.63
2019-05-23T09:37:52.936Z,6.23
2019-05-23T09:40:21.925Z,5.93
2019-05-23T09:42:50.615Z,6.77
2019-05-23T09:45:19.563Z,6.60
2019-05-23T09:47:50.958Z,5.53
2019-05-23T09:50:20.400Z,6.03
2019-05-23T09:52:49.348Z,6.13
2019-05-23T09:55:20.028Z,7.60
2019-05-23T09:57:48.719Z,7.90
2019-05-23T10:00:21.995Z,7.20
2019-05-23T10:02:51.215Z,7.47
2019-05-23T10:05:40.224Z,7.97
2019-05-23T10:07:50.330Z,6.97
2019-05-23T10:10:19.652Z,7.20
2019-05-23T10:12:48.394Z,7.70
2019-05-23T10:15:19.918Z,7.67
2019-05-23T10:17:48.784Z,7.87
2019-05-23T10:20:18.339Z,8.20
2019-05-23T10:22:47.038Z,7.10
2019-05-23T10:25:15.747Z,7.87
2019-05-23T10:27:44.524Z,6.90
2019-05-23T10:30:15.361Z,6.47
2019-05-23T10:32:44.434Z,6.13
2019-05-23T10:35:13.186Z,6.70
2019-05-23T10:37:41.872Z,6.53
2019-05-23T10:40:10.784Z,6.50
2019-05-23T10:42:39.554Z,6.13
2019-05-23T10:45:09.384Z,6.67
2019-05-23T10:47:38.280Z,6.13
2019-05-23T10:50:10.189Z,6.50
2019-05-23T10:52:39.229Z,6.20
2019-05-23T10:55:08.026Z,5.43
2019-05-23T10:57:36.894Z,5.83
2019-05-23T11:00:09.687Z,5.27
2019-05-23T11:02:39.119Z,5.40
2019-05-23T11:05:13.337Z,5.60
2019-05-23T11:07:41.290Z,5.70
2019-05-23T11:10:10.963Z,6.03
2019-05-23T11:12:40.731Z,6.10
2019-05-23T11:15:10.315Z,5.37
2019-05-23T11:17:39.126Z,5.73
2019-05-23T11:20:08.962Z,5.43
2019-05-23T11:22:38.600Z,4.90
2019-05-23T11:25:11.721Z,4.60
2019-05-23T11:27:40.727Z,5.00
2019-05-23T11:30:13.339Z,5.73
2019-05-23T11:32:42.248Z,5.27
2019-05-23T11:35:11.741Z,4.70
2019-05-23T11:37:41.974Z,5.10
2019-05-23T11:40:11.260Z,5.33
2019-05-23T11:42:40.162Z,4.27
2019-05-23T11:45:09.426Z,5.40
2019-05-23T11:47:38.234Z,4.40
2019-05-23T11:50:07.315Z,4.63
2019-05-23T11:52:36.105Z,4.33
2019-05-23T11:55:10.443Z,4.73
2019-05-23T11:57:39.303Z,4.40
2019-05-23T12:00:10.222Z,4.90
2019-05-23T12:02:40.884Z,4.10
2019-05-23T12:05:11.519Z,4.43
2019-05-23T12:07:40.811Z,4.50
2019-05-23T12:10:10.856Z,4.23
2019-05-23T12:12:39.540Z,4.57
2019-05-23T12:15:12.970Z,4.73
2019-05-23T12:17:42.443Z,5.83
2019-05-23T12:20:12.013Z,4.50
2019-05-23T12:22:41.055Z,4.47
2019-05-23T12:25:21.732Z,4.20
2019-05-23T12:27:42.503Z,4.40
2019-05-23T12:30:14.137Z,3.90
2019-05-23T12:32:42.935Z,4.50
2019-05-23T12:35:12.421Z,4.23
2019-05-23T12:37:41.261Z,4.20
2019-05-23T12:40:12.686Z,3.37
2019-05-23T12:42:41.390Z,3.93
2019-05-23T12:45:10.906Z,3.97
2019-05-23T12:47:53.310Z,4.03
2019-05-23T12:50:32.764Z,4.20
2019-05-23T12:53:01.815Z,3.63
2019-05-23T12:55:30.508Z,4.60
2019-05-23T12:57:59.264Z,4.03
2019-05-23T13:00:41.775Z,4.10
2019-05-23T13:03:12.938Z,3.53
2019-05-23T13:05:42.220Z,4.20
2019-05-23T13:08:11.189Z,4.17
2019-05-23T13:10:40.452Z,3.83
2019-05-23T13:13:09.132Z,4.00
2019-05-23T13:15:38.374Z,3.60
2019-05-23T13:18:07.036Z,6.13
2019-05-23T13:20:35.829Z,4.80
2019-05-23T13:23:04.695Z,3.73
2019-05-23T13:25:33.696Z,3.97
2019-05-23T13:28:02.379Z,4.53
2019-05-23T13:30:31.133Z,4.20
2019-05-23T13:33:03.548Z,4.03
2019-05-23T13:35:31.836Z,4.70
2019-05-23T13:38:00.946Z,4.57
2019-05-23T13:40:29.800Z,3.60
2019-05-23T13:42:58.609Z,3.90
2019-05-23T13:45:27.669Z,4.17
2019-05-23T13:47:56.549Z,4.13
2019-05-23T13:50:25.713Z,3.80
2019-05-23T13:52:55.289Z,3.83
2019-05-23T13:55:24.434Z,4.40
2019-05-23T13:57:53.127Z,4.00
2019-05-23T14:00:23.083Z,3.63
2019-05-23T14:02:52.082Z,4.40
2019-05-23T14:05:21.855Z,5.00
2019-05-23T14:07:50.582Z,4.40
2019-05-23T14:10:19.664Z,3.90
2019-05-23T14:12:48.657Z,3.60
2019-05-23T14:15:19.327Z,3.60
2019-05-23T14:17:48.894Z,3.50
2019-05-23T14:20:17.674Z,3.22
2019-05-23T14:22:59.635Z,3.30
2019-05-23T14:25:28.875Z,3.58
2019-05-23T14:27:59.215Z,3.92
2019-05-23T14:30:30.322Z,3.10
2019-05-23T14:33:04.205Z,3.37
2019-05-23T14:35:37.609Z,3.35
2019-05-23T14:38:29.172Z,3.67
2019-05-23T14:40:43.051Z,3.12
2019-05-23T14:43:19.298Z,3.70
2019-05-23T14:45:58.752Z,4.00
2019-05-23T14:48:29.240Z,3.25
2019-05-23T14:51:16.327Z,3.47
2019-05-23T14:53:56.340Z,3.02
2019-05-23T14:56:26.707Z,3.35
2019-05-23T14:58:55.481Z,3.55
2019-05-23T15:01:25.815Z,3.20
2019-05-23T15:03:55.198Z,3.85
2019-05-23T15:06:24.077Z,3.47
2019-05-23T15:08:53.362Z,3.40
2019-05-23T15:11:22.167Z,3.45
2019-05-23T15:13:51.379Z,3.22
2019-05-23T15:16:20.543Z,3.50
2019-05-23T15:18:49.451Z,3.40
2019-05-23T15:21:18.329Z,2.77
2019-05-23T15:23:47.612Z,3.00
2019-05-23T15:26:22.989Z,2.92
2019-05-23T15:28:46.635Z,2.83
2019-05-23T15:31:15.992Z,2.92
2019-05-23T15:33:45.995Z,3.35
2019-05-23T15:36:15.258Z,2.60
2019-05-23T15:38:43.946Z,2.90
2019-05-23T15:41:12.688Z,3.30
2019-05-23T15:43:41.440Z,2.45
2019-05-23T15:46:10.320Z,2.80
2019-05-23T15:48:39.393Z,2.58
2019-05-23T15:51:09.700Z,2.47
2019-05-23T15:53:40.408Z,2.67
2019-05-23T15:56:26.776Z,2.70
2019-05-23T15:58:51.252Z,2.47
2019-05-23T16:01:21.705Z,2.80
2019-05-23T16:03:52.327Z,2.87
2019-05-23T16:06:22.652Z,2.80
2019-05-23T16:08:51.523Z,2.70
2019-05-23T16:11:21.577Z,2.87
2019-05-23T16:13:50.380Z,2.50
2019-05-23T16:16:19.119Z,2.70
2019-05-23T16:18:48.475Z,2.70
2019-05-23T16:21:17.735Z,2.60
2019-05-23T16:23:46.547Z,2.70
2019-05-23T16:26:15.238Z,2.53
2019-05-23T16:28:43.991Z,3.10
2019-05-23T16:31:12.704Z,2.70
2019-05-23T16:33:41.411Z,2.93
2019-05-23T16:36:11.409Z,2.93
2019-05-23T16:38:40.301Z,3.00
2019-05-23T16:41:11.404Z,3.20
2019-05-23T16:43:39.484Z,2.60
2019-05-23T16:46:08.255Z,2.87
2019-05-23T16:48:37.722Z,2.70
2019-05-23T16:51:06.587Z,2.73
2019-05-23T16:53:36.505Z,2.90
2019-05-23T16:56:13.217Z,3.10
2019-05-23T16:59:03.537Z,2.90
2019-05-23T17:01:56.084Z,3.00
2019-05-23T17:04:21.141Z,3.20
2019-05-23T17:06:57.277Z,3.10
2019-05-23T17:09:42.866Z,2.80
2019-05-23T17:12:19.058Z,2.70
2019-05-23T17:15:05.988Z,2.80
2019-05-23T17:18:02.319Z,2.77
2019-05-23T17:20:27.797Z,2.90
2019-05-23T17:23:00.943Z,2.70
2019-05-23T17:25:47.840Z,2.90
2019-05-23T17:28:23.987Z,2.80
2019-05-23T17:30:54.622Z,2.60
2019-05-23T17:33:25.051Z,5.23
2019-05-23T17:35:54.232Z,5.17
2019-05-23T17:38:24.624Z,2.83
2019-05-23T17:40:53.737Z,2.47
2019-05-23T17:43:22.519Z,3.40
2019-05-23T17:45:51.721Z,2.70
2019-05-23T17:48:20.394Z,2.70
2019-05-23T17:50:49.416Z,2.63
2019-05-23T17:53:18.620Z,2.50
2019-05-23T17:55:47.875Z,2.50
2019-05-23T17:58:17.364Z,2.70
2019-05-23T18:00:47.819Z,2.60
2019-05-23T18:03:16.505Z,2.70
2019-05-23T18:05:46.188Z,2.83
2019-05-23T18:08:15.041Z,2.57
2019-05-23T18:10:45.997Z,2.50
2019-05-23T18:13:15.311Z,2.40
2019-05-23T18:15:44.357Z,2.70
2019-05-23T18:18:13.408Z,2.57
2019-05-23T18:20:43.034Z,2.00
2019-05-23T18:23:12.032Z,2.60
2019-05-23T18:25:41.720Z,2.57
2019-05-23T18:28:12.184Z,2.27
2019-05-23T18:30:48.634Z,2.63
2019-05-23T18:33:18.388Z,2.80
2019-05-23T18:35:47.850Z,2.60
2019-05-23T18:38:17.522Z,2.60
2019-05-23T18:41:01.702Z,2.90
2019-05-23T18:43:17.316Z,2.70
2019-05-23T18:45:48.198Z,2.87
2019-05-23T18:48:17.224Z,2.40
2019-05-23T18:50:46.677Z,2.50
2019-05-23T18:53:15.829Z,2.57
2019-05-23T18:55:44.912Z,2.70
2019-05-23T18:58:13.769Z,2.63
2019-05-23T19:00:55.523Z,2.67
2019-05-23T19:03:24.815Z,2.43
2019-05-23T19:05:53.871Z,2.60
2019-05-23T19:08:23.302Z,2.50
2019-05-23T19:10:51.982Z,2.83
2019-05-23T19:13:20.797Z,2.90
2019-05-23T19:15:49.755Z,2.60
2019-05-23T19:18:18.907Z,2.80
2019-05-23T19:20:48.395Z,2.83
2019-05-23T19:23:17.303Z,2.70
2019-05-23T19:25:46.391Z,2.87
2019-05-23T19:28:19.749Z,2.90
2019-05-23T19:30:48.832Z,2.80
2019-05-23T19:33:18.118Z,3.00
2019-05-23T19:35:49.244Z,2.83
2019-05-23T19:38:18.539Z,2.60
2019-05-23T19:40:47.855Z,2.93
2019-05-23T19:43:17.984Z,3.13
2019-05-23T19:45:47.155Z,3.33
2019-05-23T19:48:17.569Z,3.50
2019-05-23T19:50:48.232Z,3.60
2019-05-23T19:53:18.599Z,3.63
2019-05-23T19:55:48.070Z,3.87
2019-05-23T19:58:16.837Z,3.60
2019-05-23T20:00:46.111Z,3.70
2019-05-23T20:03:15.483Z,3.80
2019-05-23T20:05:48.670Z,3.43
2019-05-23T20:08:17.771Z,3.40
2019-05-23T20:10:46.723Z,3.40
2019-05-23T20:13:18.391Z,3.90
2019-05-23T20:15:46.579Z,3.70
2019-05-23T20:18:16.331Z,3.67
2019-05-23T20:20:45.499Z,3.70
2019-05-23T20:23:16.122Z,4.93
2019-05-23T20:25:45.496Z,4.27
2019-05-23T20:28:14.452Z,4.30
2019-05-23T20:30:46.857Z,4.17
2019-05-23T20:33:16.017Z,4.37
2019-05-23T20:35:44.955Z,4.37
2019-05-23T20:38:14.035Z,4.10
2019-05-23T20:40:43.127Z,4.20
2019-05-23T20:43:12.077Z,4.50
2019-05-23T20:45:41.431Z,4.70
2019-05-23T20:48:10.624Z,4.70
2019-05-23T20:50:39.627Z,4.53
2019-05-23T20:53:09.141Z,5.03
2019-05-23T20:55:37.824Z,5.00
2019-05-23T20:58:06.674Z,4.33
2019-05-23T21:00:40.905Z,4.43
2019-05-23T21:03:10.084Z,4.17
2019-05-23T21:05:38.751Z,4.67
2019-05-23T21:08:07.461Z,4.60
2019-05-23T21:10:47.328Z,4.60
2019-05-23T21:13:17.103Z,4.70
2019-05-23T21:15:46.285Z,4.30
2019-05-23T21:18:15.483Z,4.67
2019-05-23T21:20:44.313Z,4.90
2019-05-23T21:23:13.400Z,4.80
2019-05-23T21:25:43.723Z,4.93
2019-05-23T21:28:12.803Z,5.13
2019-05-23T21:30:43.430Z,5.00
2019-05-23T21:33:11.818Z,5.03
2019-05-23T21:35:40.634Z,4.97
2019-05-23T21:38:09.695Z,5.20
2019-05-23T21:40:40.919Z,5.10
2019-05-23T21:43:09.711Z,5.80
2019-05-23T21:45:38.747Z,5.30
2019-05-23T21:48:07.435Z,5.63
2019-05-23T21:50:36.148Z,5.00
2019-05-23T21:53:05.433Z,5.40
2019-05-23T21:55:41.990Z,5.27
2019-05-23T21:58:12.287Z,5.13
2019-05-23T22:01:06.970Z,5.63
2019-05-23T22:03:47.311Z,4.93
2019-05-23T22:06:23.401Z,5.33
2019-05-23T22:08:53.143Z,5.30
2019-05-23T22:11:22.104Z,5.80
2019-05-23T22:13:50.822Z,6.10
2019-05-23T22:16:19.922Z,6.60
2019-05-23T22:18:48.814Z,6.27
2019-05-23T22:21:17.578Z,6.30
2019-05-23T22:23:46.285Z,6.23
2019-05-23T22:26:14.947Z,7.97
2019-05-23T22:28:43.685Z,6.20
2019-05-23T22:31:12.932Z,6.83
2019-05-23T22:33:58.532Z,6.70
2019-05-23T22:36:27.290Z,7.30
2019-05-23T22:38:55.905Z,6.47
2019-05-23T22:41:24.859Z,6.87
2019-05-23T22:43:53.553Z,6.50
2019-05-23T22:46:23.409Z,7.13
2019-05-23T22:48:52.436Z,6.83
2019-05-23T22:51:21.127Z,7.03
2019-05-23T22:53:49.960Z,6.63
2019-05-23T22:56:18.885Z,6.77
2019-05-23T22:58:47.562Z,6.87
2019-05-23T23:01:17.020Z,6.50
2019-05-23T23:03:45.787Z,6.47
2019-05-23T23:06:15.946Z,6.83
2019-05-23T23:08:45.499Z,6.10
2019-05-23T23:11:14.299Z,6.13
2019-05-23T23:13:43.635Z,7.20
2019-05-23T23:16:12.896Z,6.80
2019-05-23T23:18:41.707Z,6.77
2019-05-23T23:21:10.394Z,6.60
2019-05-23T23:23:39.080Z,6.97
2019-05-23T23:26:07.974Z,6.40
2019-05-23T23:28:37.346Z,7.13
2019-05-23T23:31:06.087Z,7.00
2019-05-23T23:33:34.801Z,6.77
2019-05-23T23:36:03.574Z,7.17
2019-05-23T23:38:32.279Z,6.77
2019-05-23T23:41:01.039Z,6.90
2019-05-23T23:43:29.724Z,7.90
2019-05-23T23:46:16.635Z,7.57
2019-05-23T23:49:03.431Z,7.33
2019-05-23T23:51:50.079Z,7.60
2019-05-23T23:54:37.130Z,7.77
2019-05-23T23:57:24.054Z,8.37
2019-05-23T23:59:52.087Z,7.67
